Time;durP1;ratioP1;P1;durP2;ratioP2;P2;SDS_P1;SDS_P2;PMS_P1;PMS_P2;Temp;Humidity;BMP_temperature;BMP_pressure;BME280_temperature;BME280_humidity;BME280_pressure;Samples;Min_cycle;Max_cycle;Signal;HPM_P1;HPM_P2
2023/12/09 00:02:16;;;;;;;;;68.00;54.25;;;;;;;;6490975;39;9664;-60
2023/12/09 00:08:24;;;;;;;;;60.25;50.25;;;;;;;;6489949;39;8986;-61
2023/12/09 00:14:28;;;;;;;;;74.00;55.75;;;;;;;;6489818;46;9034;-59
2023/12/09 00:20:31;;;;;;;;;64.00;51.25;;;;;;;;6490111;39;9051;-59
2023/12/09 00:26:35;;;;;;;;;64.33;53.33;;;;;;;;6490206;39;8887;-59
2023/12/09 00:32:37;;;;;;;;;68.33;51.00;;;;;;;;6489783;39;8872;-59
2023/12/09 00:38:40;;;;;;;;;65.00;51.00;;;;;;;;6490283;39;8868;-59
2023/12/09 00:44:42;;;;;;;;;66.33;51.67;;;;;;;;6489100;39;8902;-58
2023/12/09 00:50:46;;;;;;;;;65.33;50.33;;;;;;;;6489140;31;8938;-60
2023/12/09 00:56:48;;;;;;;;;66.25;51.50;;;;;;;;6489503;39;9531;-59
2023/12/09 01:02:52;;;;;;;;;70.33;58.67;;;;;;;;6491696;31;9046;-59
2023/12/09 01:08:55;;;;;;;;;67.67;54.33;;;;;;;;6489749;39;9124;-60
2023/12/09 01:14:57;;;;;;;;;69.67;56.00;;;;;;;;6489423;39;8925;-59
2023/12/09 01:20:59;;;;;;;;;74.25;59.00;;;;;;;;6489726;39;8870;-59
2023/12/09 01:27:01;;;;;;;;;76.33;58.00;;;;;;;;6489966;31;8862;-60
2023/12/09 01:33:04;;;;;;;;;72.67;57.33;;;;;;;;6489997;39;8850;-60
2023/12/09 01:39:09;;;;;;;;;71.00;57.67;;;;;;;;6488886;47;8929;-59
2023/12/09 01:45:11;;;;;;;;;72.67;55.33;;;;;;;;6309856;39;10000479;-59
2023/12/09 01:51:16;;;;;;;;;68.00;55.33;;;;;;;;6525726;36;8880;-60
2023/12/09 01:57:18;;;;;;;;;68.00;54.00;;;;;;;;6489770;39;8927;-59
2023/12/09 02:03:21;;;;;;;;;65.33;53.00;;;;;;;;6489167;39;8875;-58
2023/12/09 02:09:23;;;;;;;;;69.50;56.00;;;;;;;;6489003;31;8865;-59
2023/12/09 02:15:37;;;;;;;;;70.33;56.00;;;;;;;;6488765;39;8951;-60
2023/12/09 02:22:15;;;;;;;;;66.50;48.75;;;;;;;;6488775;39;8837;-59
2023/12/09 02:28:22;;;;;;;;;67.00;53.00;;;;;;;;6488196;39;8999;-60
2023/12/09 02:34:25;;;;;;;;;66.33;50.00;;;;;;;;6489131;39;9711;-59
2023/12/09 02:40:29;;;;;;;;;66.67;54.33;;;;;;;;6491048;39;8859;-61
2023/12/09 02:46:32;;;;;;;;;57.67;50.67;;;;;;;;6491106;39;9373;-60
2023/12/09 02:52:34;;;;;;;;;70.33;55.33;;;;;;;;6490210;46;8945;-60
2023/12/09 02:58:37;;;;;;;;;68.67;52.00;;;;;;;;6489943;46;9079;-59
2023/12/09 03:04:41;;;;;;;;;68.33;52.33;;;;;;;;6490160;39;8879;-59
2023/12/09 03:10:43;;;;;;;;;67.67;53.33;;;;;;;;6490116;46;8907;-59
2023/12/09 03:16:46;;;;;;;;;66.33;54.00;;;;;;;;6489948;46;8827;-59
2023/12/09 03:22:48;;;;;;;;;65.33;51.00;;;;;;;;6490193;46;8999;-59
2023/12/09 03:28:51;;;;;;;;;66.67;50.67;;;;;;;;6490056;46;8899;-59
2023/12/09 03:34:56;;;;;;;;;58.00;46.00;;;;;;;;6309177;39;10000642;-61
2023/12/09 03:40:58;;;;;;;;;50.50;42.00;;;;;;;;6490428;39;8898;-60
2023/12/09 03:47:00;;;;;;;;;54.50;46.25;;;;;;;;6490077;46;8912;-59
2023/12/09 03:53:13;;;;;;;;;47.50;39.75;;;;;;;;6489072;31;8878;-59
2023/12/09 03:59:16;;;;;;;;;58.33;46.33;;;;;;;;6489641;31;8892;-59
2023/12/09 04:05:18;;;;;;;;;50.33;45.33;;;;;;;;6489154;46;8874;-59
2023/12/09 04:11:20;;;;;;;;;58.75;45.50;;;;;;;;6489818;46;8852;-60
2023/12/09 04:17:23;;;;;;;;;56.00;44.50;;;;;;;;6490336;39;8855;-60
2023/12/09 04:23:25;;;;;;;;;61.00;47.33;;;;;;;;6488984;39;8899;-60
2023/12/09 04:29:27;;;;;;;;;46.00;41.75;;;;;;;;6489473;46;8898;-59
2023/12/09 04:35:31;;;;;;;;;54.25;44.50;;;;;;;;6488936;46;8848;-59
2023/12/09 04:41:33;;;;;;;;;60.75;47.00;;;;;;;;6489523;39;8980;-59
2023/12/09 04:47:36;;;;;;;;;58.50;45.00;;;;;;;;6489935;31;8915;-60
2023/12/09 04:53:39;;;;;;;;;60.33;46.67;;;;;;;;6489394;39;8958;-60
2023/12/09 04:59:42;;;;;;;;;58.67;47.00;;;;;;;;6543160;36;254471;-60
2023/12/09 05:05:45;;;;;;;;;45.67;40.33;;;;;;;;6489668;39;8866;-59
2023/12/09 05:11:51;;;;;;;;;41.75;37.50;;;;;;;;6489571;39;9589;-59
